sensor_id;sensor_type;location;lat;lon;timestamp;pressure;altitude;pressure_sealevel;temperature;humidity
16580;BME280;8402;51.466;6.806;2023-05-25T00:02:04;102208.91;;;13.64;70.04
16580;BME280;8402;51.466;6.806;2023-05-25T00:04:34;102203.28;;;13.60;70.03
16580;BME280;8402;51.466;6.806;2023-05-25T00:07:04;102206.31;;;13.59;70.31
16580;BME280;8402;51.466;6.806;2023-05-25T00:09:34;102210.72;;;13.55;70.15
16580;BME280;8402;51.466;6.806;2023-05-25T00:12:08;102206.69;;;13.52;70.30
16580;BME280;8402;51.466;6.806;2023-05-25T00:14:38;102204.84;;;13.47;70.45
16580;BME280;8402;51.466;6.806;2023-05-25T00:17:08;102200.50;;;13.46;70.83
16580;BME280;8402;51.466;6.806;2023-05-25T00:19:40;102197.75;;;13.46;70.69
16580;BME280;8402;51.466;6.806;2023-05-25T00:22:11;102203.22;;;13.46;70.96
16580;BME280;8402;51.466;6.806;2023-05-25T00:24:41;102199.38;;;13.47;70.85
16580;BME280;8402;51.466;6.806;2023-05-25T00:27:13;102196.97;;;13.46;70.93
16580;BME280;8402;51.466;6.806;2023-05-25T00:29:44;102193.72;;;13.44;70.63
16580;BME280;8402;51.466;6.806;2023-05-25T00:32:14;102192.91;;;13.43;70.75
16580;BME280;8402;51.466;6.806;2023-05-25T00:34:44;102196.72;;;13.42;70.82
16580;BME280;8402;51.466;6.806;2023-05-25T00:37:15;102198.94;;;13.40;70.88
16580;BME280;8402;51.466;6.806;2023-05-25T00:39:45;102196.22;;;13.40;71.13
16580;BME280;8402;51.466;6.806;2023-05-25T00:42:18;102202.78;;;13.39;70.97
16580;BME280;8402;51.466;6.806;2023-05-25T00:44:49;102201.19;;;13.38;70.93
16580;BME280;8402;51.466;6.806;2023-05-25T00:47:19;102207.75;;;13.37;71.12
16580;BME280;8402;51.466;6.806;2023-05-25T00:49:49;102199.84;;;13.36;71.18
16580;BME280;8402;51.466;6.806;2023-05-25T00:52:20;102200.13;;;13.34;71.08
16580;BME280;8402;51.466;6.806;2023-05-25T00:54:52;102197.72;;;13.33;71.10
16580;BME280;8402;51.466;6.806;2023-05-25T00:57:27;102199.13;;;13.30;71.14
16580;BME280;8402;51.466;6.806;2023-05-25T01:00:01;102197.50;;;13.29;71.26
16580;BME280;8402;51.466;6.806;2023-05-25T01:02:35;102198.69;;;13.23;70.99
16580;BME280;8402;51.466;6.806;2023-05-25T01:05:08;102206.59;;;13.19;71.26
16580;BME280;8402;51.466;6.806;2023-05-25T01:07:41;102204.25;;;13.13;71.37
16580;BME280;8402;51.466;6.806;2023-05-25T01:10:13;102205.44;;;13.07;71.65
16580;BME280;8402;51.466;6.806;2023-05-25T01:12:50;102208.25;;;13.02;71.79
16580;BME280;8402;51.466;6.806;2023-05-25T01:15:22;102208.59;;;12.95;72.13
16580;BME280;8402;51.466;6.806;2023-05-25T01:17:53;102212.22;;;12.90;72.16
16580;BME280;8402;51.466;6.806;2023-05-25T01:20:25;102218.25;;;12.87;72.35
16580;BME280;8402;51.466;6.806;2023-05-25T01:23:04;102210.13;;;12.82;72.77
16580;BME280;8402;51.466;6.806;2023-05-25T01:25:40;102220.00;;;12.78;72.78
16580;BME280;8402;51.466;6.806;2023-05-25T01:28:17;102214.63;;;12.73;73.03
16580;BME280;8402;51.466;6.806;2023-05-25T01:30:52;102215.75;;;12.72;73.15
16580;BME280;8402;51.466;6.806;2023-05-25T01:33:25;102221.75;;;12.69;73.12
16580;BME280;8402;51.466;6.806;2023-05-25T01:35:57;102218.50;;;12.67;73.28
16580;BME280;8402;51.466;6.806;2023-05-25T01:38:29;102222.34;;;12.66;73.39
16580;BME280;8402;51.466;6.806;2023-05-25T01:41:00;102218.00;;;12.65;73.39
16580;BME280;8402;51.466;6.806;2023-05-25T01:43:30;102222.91;;;12.63;73.45
16580;BME280;8402;51.466;6.806;2023-05-25T01:46:08;102226.22;;;12.60;73.81
16580;BME280;8402;51.466;6.806;2023-05-25T01:48:48;102224.06;;;12.57;73.65
16580;BME280;8402;51.466;6.806;2023-05-25T01:51:29;102220.84;;;12.55;73.74
16580;BME280;8402;51.466;6.806;2023-05-25T01:54:18;102236.97;;;12.51;73.99
16580;BME280;8402;51.466;6.806;2023-05-25T01:56:50;102245.41;;;12.50;73.65
16580;BME280;8402;51.466;6.806;2023-05-25T01:59:21;102241.34;;;12.47;73.61
16580;BME280;8402;51.466;6.806;2023-05-25T02:01:53;102243.56;;;12.45;73.61
16580;BME280;8402;51.466;6.806;2023-05-25T02:04:24;102237.66;;;12.38;74.00
16580;BME280;8402;51.466;6.806;2023-05-25T02:06:55;102238.22;;;12.35;74.06
16580;BME280;8402;51.466;6.806;2023-05-25T02:09:28;102234.16;;;12.32;74.27
16580;BME280;8402;51.466;6.806;2023-05-25T02:11:58;102230.38;;;12.28;73.95
16580;BME280;8402;51.466;6.806;2023-05-25T02:14:28;102234.50;;;12.26;74.28
16580;BME280;8402;51.466;6.806;2023-05-25T02:16:59;102241.34;;;12.23;74.42
16580;BME280;8402;51.466;6.806;2023-05-25T02:19:29;102241.91;;;12.20;74.66
16580;BME280;8402;51.466;6.806;2023-05-25T02:21:59;102237.56;;;12.19;74.64
16580;BME280;8402;51.466;6.806;2023-05-25T02:24:32;102236.25;;;12.17;74.87
16580;BME280;8402;51.466;6.806;2023-05-25T02:27:04;102236.53;;;12.15;74.88
16580;BME280;8402;51.466;6.806;2023-05-25T02:29:34;102244.47;;;12.11;75.04
16580;BME280;8402;51.466;6.806;2023-05-25T02:32:05;102247.47;;;12.10;75.01
16580;BME280;8402;51.466;6.806;2023-05-25T02:34:36;102239.59;;;12.08;75.07
16580;BME280;8402;51.466;6.806;2023-05-25T02:37:06;102242.59;;;12.07;75.04
16580;BME280;8402;51.466;6.806;2023-05-25T02:39:38;102238.53;;;12.04;75.11
16580;BME280;8402;51.466;6.806;2023-05-25T02:42:08;102239.94;;;12.02;75.04
16580;BME280;8402;51.466;6.806;2023-05-25T02:44:41;102233.94;;;12.00;75.03
16580;BME280;8402;51.466;6.806;2023-05-25T02:47:14;102235.06;;;11.99;75.12
16580;BME280;8402;51.466;6.806;2023-05-25T02:49:44;102228.00;;;11.98;75.18
16580;BME280;8402;51.466;6.806;2023-05-25T02:52:14;102230.19;;;11.96;75.07
16580;BME280;8402;51.466;6.806;2023-05-25T02:54:47;102226.41;;;11.92;75.13
16580;BME280;8402;51.466;6.806;2023-05-25T02:57:18;102235.47;;;11.87;75.00
16580;BME280;8402;51.466;6.806;2023-05-25T02:59:49;102229.47;;;11.85;75.08
16580;BME280;8402;51.466;6.806;2023-05-25T03:02:19;102234.09;;;11.84;75.36
16580;BME280;8402;51.466;6.806;2023-05-25T03:04:51;102240.63;;;11.83;75.37
16580;BME280;8402;51.466;6.806;2023-05-25T03:07:27;102233.59;;;11.82;75.25
16580;BME280;8402;51.466;6.806;2023-05-25T03:09:59;102233.88;;;11.81;75.40
16580;BME280;8402;51.466;6.806;2023-05-25T03:12:29;102235.50;;;11.77;75.23
16580;BME280;8402;51.466;6.806;2023-05-25T03:14:59;102247.47;;;11.76;75.29
16580;BME280;8402;51.466;6.806;2023-05-25T03:17:32;102252.09;;;11.75;75.63
16580;BME280;8402;51.466;6.806;2023-05-25T03:20:02;102252.09;;;11.75;75.68
16580;BME280;8402;51.466;6.806;2023-05-25T03:22:32;102255.63;;;11.76;75.77
16580;BME280;8402;51.466;6.806;2023-05-25T03:25:06;102252.91;;;11.76;75.68
16580;BME280;8402;51.466;6.806;2023-05-25T03:27:38;102261.38;;;11.74;75.63
16580;BME280;8402;51.466;6.806;2023-05-25T03:30:09;102256.72;;;11.75;75.79
16580;BME280;8402;51.466;6.806;2023-05-25T03:32:39;102260.25;;;11.75;75.80
16580;BME280;8402;51.466;6.806;2023-05-25T03:35:09;102272.75;;;11.76;75.64
16580;BME280;8402;51.466;6.806;2023-05-25T03:37:39;102275.47;;;11.76;75.22
16580;BME280;8402;51.466;6.806;2023-05-25T03:40:12;102280.09;;;11.76;75.64
16580;BME280;8402;51.466;6.806;2023-05-25T03:42:42;102286.34;;;11.76;75.47
16580;BME280;8402;51.466;6.806;2023-05-25T03:45:12;102283.63;;;11.76;75.19
16580;BME280;8402;51.466;6.806;2023-05-25T03:47:43;102293.41;;;11.77;75.48
16580;BME280;8402;51.466;6.806;2023-05-25T03:50:14;102289.59;;;11.78;75.59
16580;BME280;8402;51.466;6.806;2023-05-25T03:52:44;102282.00;;;11.80;75.72
16580;BME280;8402;51.466;6.806;2023-05-25T03:55:17;102282.00;;;11.80;75.54
16580;BME280;8402;51.466;6.806;2023-05-25T03:57:47;102284.75;;;11.80;75.45
16580;BME280;8402;51.466;6.806;2023-05-25T04:00:17;102292.91;;;11.80;75.30
16580;BME280;8402;51.466;6.806;2023-05-25T04:02:47;102293.97;;;11.79;75.52
16580;BME280;8402;51.466;6.806;2023-05-25T04:05:18;102293.41;;;11.77;75.38
16580;BME280;8402;51.466;6.806;2023-05-25T04:07:48;102295.63;;;11.75;75.21
16580;BME280;8402;51.466;6.806;2023-05-25T04:10:20;102300.81;;;11.72;75.51
16580;BME280;8402;51.466;6.806;2023-05-25T04:12:50;102303.28;;;11.68;75.64
16580;BME280;8402;51.466;6.806;2023-05-25T04:15:22;102301.13;;;11.65;75.82
16580;BME280;8402;51.466;6.806;2023-05-25T04:17:52;102300.34;;;11.60;75.71
16580;BME280;8402;51.466;6.806;2023-05-25T04:20:25;102295.75;;;11.55;76.11
16580;BME280;8402;51.466;6.806;2023-05-25T04:22:55;102304.19;;;11.53;76.43
16580;BME280;8402;51.466;6.806;2023-05-25T04:25:28;102303.41;;;11.53;76.46
16580;BME280;8402;51.466;6.806;2023-05-25T04:27:58;102296.63;;;11.50;76.49
16580;BME280;8402;51.466;6.806;2023-05-25T04:30:28;102296.06;;;11.48;76.73
16580;BME280;8402;51.466;6.806;2023-05-25T04:32:58;102299.88;;;11.47;76.81
16580;BME280;8402;51.466;6.806;2023-05-25T04:35:28;102299.09;;;11.47;76.97
16580;BME280;8402;51.466;6.806;2023-05-25T04:37:58;102298.84;;;11.43;77.13
16580;BME280;8402;51.466;6.806;2023-05-25T04:40:33;102301.81;;;11.42;77.16
16580;BME280;8402;51.466;6.806;2023-05-25T04:43:03;102302.63;;;11.42;77.17
16580;BME280;8402;51.466;6.806;2023-05-25T04:45:35;102310.53;;;11.44;77.37
16580;BME280;8402;51.466;6.806;2023-05-25T04:48:05;102311.34;;;11.44;77.18
16580;BME280;8402;51.466;6.806;2023-05-25T04:50:35;102313.75;;;11.46;77.59
16580;BME280;8402;51.466;6.806;2023-05-25T04:53:06;102311.06;;;11.46;77.63
16580;BME280;8402;51.466;6.806;2023-05-25T04:55:39;102313.75;;;11.46;77.89
16580;BME280;8402;51.466;6.806;2023-05-25T04:58:09;102316.47;;;11.46;78.14
16580;BME280;8402;51.466;6.806;2023-05-25T05:00:40;102332.78;;;11.46;78.54
16580;BME280;8402;51.466;6.806;2023-05-25T05:03:14;102338.22;;;11.46;78.58
16580;BME280;8402;51.466;6.806;2023-05-25T05:05:44;102342.56;;;11.47;78.73
16580;BME280;8402;51.466;6.806;2023-05-25T05:08:14;102345.81;;;11.49;78.99
16580;BME280;8402;51.466;6.806;2023-05-25T05:10:47;102347.44;;;11.50;79.52
16580;BME280;8402;51.466;6.806;2023-05-25T05:13:17;102335.75;;;11.49;79.59
16580;BME280;8402;51.466;6.806;2023-05-25T05:15:47;102343.09;;;11.49;80.02
16580;BME280;8402;51.466;6.806;2023-05-25T05:18:17;102342.00;;;11.50;80.38
16580;BME280;8402;51.466;6.806;2023-05-25T05:20:47;102345.25;;;11.52;79.99
16580;BME280;8402;51.466;6.806;2023-05-25T05:23:17;102345.25;;;11.52;80.42
16580;BME280;8402;51.466;6.806;2023-05-25T05:25:50;102345.25;;;11.52;80.99
16580;BME280;8402;51.466;6.806;2023-05-25T05:28:20;102350.13;;;11.55;80.84
16580;BME280;8402;51.466;6.806;2023-05-25T05:30:53;102353.38;;;11.57;80.63
16580;BME280;8402;51.466;6.806;2023-05-25T05:33:23;102354.72;;;11.60;80.91
16580;BME280;8402;51.466;6.806;2023-05-25T05:35:53;102358.78;;;11.62;81.07
16580;BME280;8402;51.466;6.806;2023-05-25T05:38:24;102359.84;;;11.66;81.40
16580;BME280;8402;51.466;6.806;2023-05-25T05:40:56;102360.38;;;11.68;81.64
16580;BME280;8402;51.466;6.806;2023-05-25T05:43:27;102371.78;;;11.70;82.11
16580;BME280;8402;51.466;6.806;2023-05-25T05:46:00;102372.34;;;11.72;81.71
16580;BME280;8402;51.466;6.806;2023-05-25T05:48:31;102373.38;;;11.76;81.47
16580;BME280;8402;51.466;6.806;2023-05-25T05:51:02;102376.09;;;11.81;81.20
16580;BME280;8402;51.466;6.806;2023-05-25T05:53:32;102376.34;;;11.85;81.79
16580;BME280;8402;51.466;6.806;2023-05-25T05:56:05;102382.31;;;11.87;82.00
16580;BME280;8402;51.466;6.806;2023-05-25T05:58:35;102380.13;;;11.89;81.92
16580;BME280;8402;51.466;6.806;2023-05-25T06:01:05;102381.19;;;11.93;82.02
16580;BME280;8402;51.466;6.806;2023-05-25T06:03:35;102387.97;;;11.96;81.76
16580;BME280;8402;51.466;6.806;2023-05-25T06:06:05;102385.78;;;11.98;82.11
16580;BME280;8402;51.466;6.806;2023-05-25T06:08:36;102378.69;;;12.02;81.95
16580;BME280;8402;51.466;6.806;2023-05-25T06:11:09;102375.91;;;12.07;82.17
16580;BME280;8402;51.466;6.806;2023-05-25T06:13:39;102373.66;;;12.14;82.51
16580;BME280;8402;51.466;6.806;2023-05-25T06:16:12;102374.16;;;12.21;82.20
16580;BME280;8402;51.466;6.806;2023-05-25T06:18:42;102380.34;;;12.32;82.43
16580;BME280;8402;51.466;6.806;2023-05-25T06:21:12;102383.25;;;12.40;82.07
16580;BME280;8402;51.466;6.806;2023-05-25T06:23:42;102380.72;;;12.49;81.97
16580;BME280;8402;51.466;6.806;2023-05-25T06:26:16;102381.91;;;12.67;82.18
16580;BME280;8402;51.466;6.806;2023-05-25T06:28:49;102390.41;;;12.89;81.46
16580;BME280;8402;51.466;6.806;2023-05-25T06:31:19;102384.38;;;13.16;81.08
16580;BME280;8402;51.466;6.806;2023-05-25T06:33:51;102387.53;;;13.47;80.94
16580;BME280;8402;51.466;6.806;2023-05-25T06:36:21;102390.44;;;13.75;80.39
16580;BME280;8402;51.466;6.806;2023-05-25T06:38:53;102396.59;;;13.99;79.42
16580;BME280;8402;51.466;6.806;2023-05-25T06:41:26;102393.47;;;14.25;78.36
16580;BME280;8402;51.466;6.806;2023-05-25T06:43:56;102394.78;;;14.46;77.40
16580;BME280;8402;51.466;6.806;2023-05-25T06:46:26;102386.63;;;14.74;77.29
16580;BME280;8402;51.466;6.806;2023-05-25T06:48:59;102396.66;;;15.06;76.81
16580;BME280;8402;51.466;6.806;2023-05-25T06:51:30;102398.66;;;15.28;75.58
16580;BME280;8402;51.466;6.806;2023-05-25T06:54:00;102398.13;;;15.53;76.35
16580;BME280;8402;51.466;6.806;2023-05-25T06:56:33;102399.81;;;15.77;74.97
16580;BME280;8402;51.466;6.806;2023-05-25T06:59:03;102393.25;;;16.00;74.01
16580;BME280;8402;51.466;6.806;2023-05-25T07:01:33;102398.06;;;16.17;73.09
16580;BME280;8402;51.466;6.806;2023-05-25T07:04:03;102395.00;;;16.18;72.55
16580;BME280;8402;51.466;6.806;2023-05-25T07:06:33;102403.03;;;16.37;72.40
16580;BME280;8402;51.466;6.806;2023-05-25T07:09:03;102400.03;;;16.47;72.46
16580;BME280;8402;51.466;6.806;2023-05-25T07:11:39;102402.25;;;16.68;72.13
16580;BME280;8402;51.466;6.806;2023-05-25T07:14:09;102402.84;;;16.87;71.57
16580;BME280;8402;51.466;6.806;2023-05-25T07:16:39;102402.22;;;16.99;71.29
16580;BME280;8402;51.466;6.806;2023-05-25T07:19:11;102407.16;;;17.19;70.27
16580;BME280;8402;51.466;6.806;2023-05-25T07:21:41;102404.78;;;17.44;69.69
16580;BME280;8402;51.466;6.806;2023-05-25T07:24:11;102401.63;;;17.76;69.71
16580;BME280;8402;51.466;6.806;2023-05-25T07:26:43;102402.41;;;17.85;69.01
16580;BME280;8402;51.466;6.806;2023-05-25T07:29:15;102407.91;;;17.85;68.37
16580;BME280;8402;51.466;6.806;2023-05-25T07:31:45;102409.06;;;17.93;68.64
16580;BME280;8402;51.466;6.806;2023-05-25T07:34:15;102417.13;;;17.81;68.64
16580;BME280;8402;51.466;6.806;2023-05-25T07:36:46;102413.72;;;17.75;68.02
16580;BME280;8402;51.466;6.806;2023-05-25T07:39:16;102415.19;;;17.73;67.24
16580;BME280;8402;51.466;6.806;2023-05-25T07:41:48;102419.22;;;17.75;66.86
16580;BME280;8402;51.466;6.806;2023-05-25T07:44:18;102417.63;;;18.00;67.65
16580;BME280;8402;51.466;6.806;2023-05-25T07:46:48;102415.84;;;18.04;66.92
16580;BME280;8402;51.466;6.806;2023-05-25T07:49:18;102423.91;;;17.92;66.27
16580;BME280;8402;51.466;6.806;2023-05-25T07:51:49;102418.91;;;18.03;65.28
16580;BME280;8402;51.466;6.806;2023-05-25T07:54:19;102423.72;;;18.32;65.61
16580;BME280;8402;51.466;6.806;2023-05-25T07:56:51;102420.59;;;18.59;63.03
16580;BME280;8402;51.466;6.806;2023-05-25T07:59:21;102423.44;;;18.89;63.77
16580;BME280;8402;51.466;6.806;2023-05-25T08:01:51;102423.13;;;19.20;62.50
16580;BME280;8402;51.466;6.806;2023-05-25T08:04:21;102422.66;;;19.47;62.19
16580;BME280;8402;51.466;6.806;2023-05-25T08:06:52;102421.22;;;19.71;61.89
16580;BME280;8402;51.466;6.806;2023-05-25T08:09:22;102418.53;;;20.04;61.26
16580;BME280;8402;51.466;6.806;2023-05-25T08:11:55;102420.47;;;20.03;59.77
16580;BME280;8402;51.466;6.806;2023-05-25T08:14:46;102428.22;;;19.89;59.83
16580;BME280;8402;51.466;6.806;2023-05-25T08:17:16;102428.03;;;19.94;60.00
16580;BME280;8402;51.466;6.806;2023-05-25T08:19:46;102428.06;;;20.06;59.98
16580;BME280;8402;51.466;6.806;2023-05-25T08:22:17;102434.69;;;19.93;59.77
16580;BME280;8402;51.466;6.806;2023-05-25T08:24:46;102430.69;;;19.82;60.24
16580;BME280;8402;51.466;6.806;2023-05-25T08:27:19;102431.31;;;19.67;59.64
16580;BME280;8402;51.466;6.806;2023-05-25T08:29:49;102428.38;;;19.72;61.05
16580;BME280;8402;51.466;6.806;2023-05-25T08:32:19;102441.06;;;19.56;58.33
16580;BME280;8402;51.466;6.806;2023-05-25T08:34:49;102436.31;;;19.35;58.80
16580;BME280;8402;51.466;6.806;2023-05-25T08:37:19;102441.59;;;19.49;60.31
16580;BME280;8402;51.466;6.806;2023-05-25T08:39:50;102443.50;;;19.57;59.12
16580;BME280;8402;51.466;6.806;2023-05-25T08:42:23;102446.56;;;19.56;58.68
16580;BME280;8402;51.466;6.806;2023-05-25T08:44:53;102452.06;;;19.56;59.46
16580;BME280;8402;51.466;6.806;2023-05-25T08:47:28;102458.44;;;19.47;58.13
16580;BME280;8402;51.466;6.806;2023-05-25T08:50:01;102454.53;;;19.48;58.96
16580;BME280;8402;51.466;6.806;2023-05-25T08:52:35;102454.03;;;19.55;58.66
16580;BME280;8402;51.466;6.806;2023-05-25T08:55:08;102447.22;;;19.61;58.46
16580;BME280;8402;51.466;6.806;2023-05-25T08:57:45;102443.88;;;19.47;57.06
16580;BME280;8402;51.466;6.806;2023-05-25T09:00:23;102456.09;;;19.37;58.21
16580;BME280;8402;51.466;6.806;2023-05-25T09:02:58;102448.75;;;19.41;58.96
16580;BME280;8402;51.466;6.806;2023-05-25T09:05:34;102447.81;;;19.67;58.89
16580;BME280;8402;51.466;6.806;2023-05-25T09:08:05;102444.06;;;20.13;58.97
16580;BME280;8402;51.466;6.806;2023-05-25T09:10:36;102438.50;;;20.34;57.83
16580;BME280;8402;51.466;6.806;2023-05-25T09:13:09;102445.78;;;20.39;55.38
16580;BME280;8402;51.466;6.806;2023-05-25T09:15:48;102451.16;;;20.14;55.89
16580;BME280;8402;51.466;6.806;2023-05-25T09:18:19;102455.97;;;20.05;57.10
16580;BME280;8402;51.466;6.806;2023-05-25T09:20:49;102449.56;;;20.13;56.99
16580;BME280;8402;51.466;6.806;2023-05-25T09:23:21;102456.03;;;20.17;56.30
16580;BME280;8402;51.466;6.806;2023-05-25T09:25:52;102458.97;;;20.12;55.24
16580;BME280;8402;51.466;6.806;2023-05-25T09:28:25;102463.75;;;20.24;55.77
16580;BME280;8402;51.466;6.806;2023-05-25T09:30:55;102461.53;;;20.17;56.29
16580;BME280;8402;51.466;6.806;2023-05-25T09:33:25;102465.81;;;20.27;56.29
16580;BME280;8402;51.466;6.806;2023-05-25T09:35:55;102468.56;;;20.27;55.18
16580;BME280;8402;51.466;6.806;2023-05-25T09:38:29;102462.72;;;20.28;55.58
16580;BME280;8402;51.466;6.806;2023-05-25T09:40:59;102466.78;;;20.10;55.40
16580;BME280;8402;51.466;6.806;2023-05-25T09:43:33;102474.31;;;19.80;54.66
16580;BME280;8402;51.466;6.806;2023-05-25T09:46:14;102465.28;;;19.71;56.30
16580;BME280;8402;51.466;6.806;2023-05-25T09:48:44;102478.31;;;19.62;56.85
16580;BME280;8402;51.466;6.806;2023-05-25T09:51:16;102477.72;;;19.47;55.68
16580;BME280;8402;51.466;6.806;2023-05-25T09:53:47;102477.94;;;19.72;56.21
16580;BME280;8402;51.466;6.806;2023-05-25T09:56:17;102479.56;;;19.94;56.50
16580;BME280;8402;51.466;6.806;2023-05-25T09:58:51;102472.84;;;20.03;55.20
16580;BME280;8402;51.466;6.806;2023-05-25T10:01:22;102469.72;;;20.05;55.74
16580;BME280;8402;51.466;6.806;2023-05-25T10:03:54;102479.59;;;19.85;54.81
16580;BME280;8402;51.466;6.806;2023-05-25T10:06:31;102483.72;;;19.79;55.53
16580;BME280;8402;51.466;6.806;2023-05-25T10:09:02;102480.91;;;19.88;55.92
16580;BME280;8402;51.466;6.806;2023-05-25T10:11:34;102487.59;;;19.99;55.67
16580;BME280;8402;51.466;6.806;2023-05-25T10:14:09;102485.59;;;19.87;54.82
16580;BME280;8402;51.466;6.806;2023-05-25T10:16:44;102489.88;;;19.76;55.50
16580;BME280;8402;51.466;6.806;2023-05-25T10:19:19;102488.66;;;19.65;56.03
16580;BME280;8402;51.466;6.806;2023-05-25T10:21:54;102494.19;;;19.65;55.98
16580;BME280;8402;51.466;6.806;2023-05-25T10:24:33;102494.97;;;19.65;55.86
16580;BME280;8402;51.466;6.806;2023-05-25T10:27:05;102486.09;;;19.60;56.07
16580;BME280;8402;51.466;6.806;2023-05-25T10:29:57;102488.94;;;19.72;56.05
16580;BME280;8402;51.466;6.806;2023-05-25T10:32:28;102498.16;;;19.76;56.80
16580;BME280;8402;51.466;6.806;2023-05-25T10:34:59;102491.66;;;19.81;56.62
16580;BME280;8402;51.466;6.806;2023-05-25T10:37:33;102482.34;;;19.85;56.00
16580;BME280;8402;51.466;6.806;2023-05-25T10:40:05;102493.00;;;19.95;56.44
16580;BME280;8402;51.466;6.806;2023-05-25T10:42:37;102493.34;;;19.94;55.85
16580;BME280;8402;51.466;6.806;2023-05-25T10:45:11;102493.91;;;19.99;56.57
16580;BME280;8402;51.466;6.806;2023-05-25T10:47:42;102486.41;;;20.09;56.38
16580;BME280;8402;51.466;6.806;2023-05-25T10:50:20;102495.25;;;20.14;53.80
16580;BME280;8402;51.466;6.806;2023-05-25T10:53:00;102486.59;;;20.45;55.11
16580;BME280;8402;51.466;6.806;2023-05-25T10:55:41;102483.91;;;20.70;55.47
16580;BME280;8402;51.466;6.806;2023-05-25T10:58:13;102483.97;;;20.82;55.61
16580;BME280;8402;51.466;6.806;2023-05-25T11:00:59;102480.69;;;20.68;53.82
16580;BME280;8402;51.466;6.806;2023-05-25T11:03:47;102480.00;;;20.58;53.12
16580;BME280;8402;51.466;6.806;2023-05-25T11:06:19;102475.63;;;20.57;54.17
16580;BME280;8402;51.466;6.806;2023-05-25T11:08:52;102475.38;;;20.50;54.38
16580;BME280;8402;51.466;6.806;2023-05-25T11:14:32;102483.75;;;20.33;54.51
16580;BME280;8402;51.466;6.806;2023-05-25T11:17:08;102472.28;;;20.31;53.69
16580;BME280;8402;51.466;6.806;2023-05-25T11:19:45;102474.56;;;20.29;54.41
16580;BME280;8402;51.466;6.806;2023-05-25T11:22:18;102473.81;;;20.20;53.77
16580;BME280;8402;51.466;6.806;2023-05-25T11:24:50;102472.41;;;20.14;54.68
16580;BME280;8402;51.466;6.806;2023-05-25T11:27:21;102465.22;;;20.21;54.84
16580;BME280;8402;51.466;6.806;2023-05-25T11:29:53;102466.50;;;20.24;54.03
16580;BME280;8402;51.466;6.806;2023-05-25T11:32:30;102475.91;;;20.23;53.88
16580;BME280;8402;51.466;6.806;2023-05-25T11:35:06;102464.41;;;20.21;53.63
16580;BME280;8402;51.466;6.806;2023-05-25T11:37:36;102469.47;;;20.19;53.92
16580;BME280;8402;51.466;6.806;2023-05-25T11:40:09;102453.59;;;20.16;53.85
16580;BME280;8402;51.466;6.806;2023-05-25T11:42:41;102452.38;;;20.25;53.86
16580;BME280;8402;51.466;6.806;2023-05-25T11:45:13;102444.22;;;20.50;53.58
16580;BME280;8402;51.466;6.806;2023-05-25T11:47:46;102449.91;;;20.66;52.63
16580;BME280;8402;51.466;6.806;2023-05-25T11:50:16;102444.31;;;20.86;52.23
16580;BME280;8402;51.466;6.806;2023-05-25T11:52:49;102429.03;;;21.01;52.55
16580;BME280;8402;51.466;6.806;2023-05-25T11:55:19;102429.50;;;21.28;52.20
16580;BME280;8402;51.466;6.806;2023-05-25T11:57:56;102422.47;;;21.42;51.29
16580;BME280;8402;51.466;6.806;2023-05-25T12:00:27;102427.41;;;21.49;51.72
16580;BME280;8402;51.466;6.806;2023-05-25T12:03:00;102429.94;;;21.54;50.46
16580;BME280;8402;51.466;6.806;2023-05-25T12:05:38;102423.34;;;21.71;50.94
16580;BME280;8402;51.466;6.806;2023-05-25T12:08:08;102418.22;;;21.85;51.29
16580;BME280;8402;51.466;6.806;2023-05-25T12:10:48;102426.19;;;21.87;49.59
16580;BME280;8402;51.466;6.806;2023-05-25T12:13:19;102423.09;;;21.76;50.08
16580;BME280;8402;51.466;6.806;2023-05-25T12:15:49;102423.88;;;21.89;51.50
16580;BME280;8402;51.466;6.806;2023-05-25T12:18:22;102435.56;;;21.98;50.20
16580;BME280;8402;51.466;6.806;2023-05-25T12:20:55;102423.66;;;21.82;49.70
16580;BME280;8402;51.466;6.806;2023-05-25T12:23:25;102421.13;;;21.77;50.03
16580;BME280;8402;51.466;6.806;2023-05-25T12:26:08;102413.78;;;21.68;50.10
16580;BME280;8402;51.466;6.806;2023-05-25T12:28:39;102419.69;;;21.67;49.66
16580;BME280;8402;51.466;6.806;2023-05-25T12:31:21;102406.44;;;21.60;49.71
16580;BME280;8402;51.466;6.806;2023-05-25T12:34:08;102413.50;;;21.58;48.67
16580;BME280;8402;51.466;6.806;2023-05-25T12:36:40;102424.50;;;21.70;50.06
16580;BME280;8402;51.466;6.806;2023-05-25T12:39:13;102416.78;;;21.63;50.28
16580;BME280;8402;51.466;6.806;2023-05-25T12:41:48;102400.50;;;21.46;49.39
16580;BME280;8402;51.466;6.806;2023-05-25T12:44:23;102414.06;;;21.51;49.50
16580;BME280;8402;51.466;6.806;2023-05-25T12:46:55;102403.97;;;21.83;49.12
16580;BME280;8402;51.466;6.806;2023-05-25T12:49:29;102397.88;;;22.34;48.54
16580;BME280;8402;51.466;6.806;2023-05-25T12:52:02;102396.13;;;22.41;48.60
16580;BME280;8402;51.466;6.806;2023-05-25T12:54:33;102402.25;;;22.35;48.67
16580;BME280;8402;51.466;6.806;2023-05-25T12:57:04;102401.03;;;22.48;48.31
16580;BME280;8402;51.466;6.806;2023-05-25T12:59:36;102396.59;;;22.75;49.40
16580;BME280;8402;51.466;6.806;2023-05-25T13:02:07;102389.56;;;22.93;48.19
16580;BME280;8402;51.466;6.806;2023-05-25T13:04:40;102382.41;;;23.08;48.35
16580;BME280;8402;51.466;6.806;2023-05-25T13:07:10;102384.03;;;23.28;47.82
16580;BME280;8402;51.466;6.806;2023-05-25T13:09:40;102375.56;;;23.56;47.09
16580;BME280;8402;51.466;6.806;2023-05-25T13:12:10;102380.03;;;23.61;46.60
16580;BME280;8402;51.466;6.806;2023-05-25T13:14:40;102386.53;;;23.33;45.92
16580;BME280;8402;51.466;6.806;2023-05-25T13:17:11;102363.50;;;23.29;47.27
16580;BME280;8402;51.466;6.806;2023-05-25T13:19:44;102371.53;;;23.34;45.20
16580;BME280;8402;51.466;6.806;2023-05-25T13:22:14;102377.09;;;23.54;45.23
16580;BME280;8402;51.466;6.806;2023-05-25T13:24:44;102371.59;;;23.73;44.97
16580;BME280;8402;51.466;6.806;2023-05-25T13:27:14;102367.50;;;23.86;44.44
16580;BME280;8402;51.466;6.806;2023-05-25T13:29:44;102365.38;;;23.99;45.06